Time;durP1;ratioP1;P1;durP2;ratioP2;P2;SDS_P1;SDS_P2;PMS_P1;PMS_P2;Temp;Humidity;BMP_temperature;BMP_pressure;BME280_temperature;BME280_humidity;BME280_pressure;Samples;Min_cycle;Max_cycle;Signal;HPM_P1;HPM_P2
2021/10/01 13:54:22;;;;;;;3.27;2.97;;;14.60;30.00;;;;;;5064691;28;20603;-67
2021/10/01 13:56:47;;;;;;;3.20;2.93;;;14.80;30.30;;;;;;5062880;28;20743;-67
2021/10/01 13:59:13;;;;;;;4.30;3.10;;;15.70;27.40;;;;;;5058406;28;20210;-67
2021/10/01 14:01:38;;;;;;;3.20;3.00;;;16.40;26.00;;;;;;5044147;28;20579;-67
2021/10/01 14:04:04;;;;;;;4.60;4.27;;;17.30;23.40;;;;;;5054758;28;20194;-67
2021/10/01 14:06:29;;;;;;;4.43;4.13;;;17.80;22.60;;;;;;5049288;28;20190;-68
2021/10/01 14:08:55;;;;;;;5.27;4.93;;;18.30;21.90;;;;;;5043494;28;20182;-67
2021/10/01 14:11:20;;;;;;;5.17;4.77;;;18.70;20.10;;;;;;5043605;28;20265;-68
2021/10/01 14:13:46;;;;;;;5.33;5.03;;;19.10;19.80;;;;;;5043071;28;20209;-67
2021/10/01 14:16:11;;;;;;;5.93;5.53;;;19.40;19.10;;;;;;5042120;28;20504;-67
2021/10/01 14:18:37;;;;;;;6.43;6.13;;;19.60;19.10;;;;;;5053192;28;20201;-67
2021/10/01 14:21:02;;;;;;;7.27;6.77;;;19.80;18.60;;;;;;5061413;28;20196;-68
2021/10/01 14:23:28;;;;;;;7.43;7.03;;;20.00;16.50;;;;;;5062677;28;20202;-67
2021/10/01 14:25:53;;;;;;;7.60;7.00;;;20.20;16.70;;;;;;5062938;28;20197;-67
2021/10/01 14:28:19;;;;;;;6.83;6.43;;;20.20;16.70;;;;;;5064206;28;20189;-67
2021/10/01 14:30:45;;;;;;;7.50;6.90;;;20.30;16.80;;;;;;5062556;28;20197;-67
2021/10/01 14:33:10;;;;;;;7.40;7.00;;;20.40;16.80;;;;;;5063679;28;20209;-67
2021/10/01 14:35:39;;;;;;;7.60;7.20;;;20.40;16.80;;;;;;5064770;28;20455;-67
2021/10/01 14:38:07;;;;;;;7.50;7.00;;;20.50;16.90;;;;;;5065193;28;20230;-67
2021/10/01 14:40:34;;;;;;;8.90;8.37;;;20.50;16.90;;;;;;5065323;28;20470;-67
2021/10/01 14:43:00;;;;;;;8.57;7.83;;;;;;;;;;5064826;28;21049;-67
2021/10/01 14:45:26;;;;;;;10.47;8.50;;;20.60;16.50;;;;;;5064671;28;20689;-67
2021/10/01 14:47:52;;;;;;;8.10;7.70;;;;;;;;;;5064338;28;20926;-67
2021/10/01 14:50:17;;;;;;;8.40;7.90;;;20.70;16.60;;;;;;5063693;28;20240;-67
2021/10/01 14:52:43;;;;;;;8.37;7.90;;;;;;;;;;5063445;28;20464;-67
2021/10/01 14:55:11;;;;;;;9.70;8.80;;;20.70;15.80;;;;;;5050074;28;20198;-67
2021/10/01 14:57:38;;;;;;;8.40;8.00;;;20.70;16.60;;;;;;5043683;28;20500;-67
2021/10/01 15:00:07;;;;;;;9.60;8.80;;;20.80;16.40;;;;;;5042904;28;20417;-67
2021/10/01 15:02:33;;;;;;;8.93;8.43;;;20.80;16.60;;;;;;5042730;28;20546;-67
2021/10/01 15:04:58;;;;;;;9.10;8.40;;;20.70;16.70;;;;;;5037195;28;20834;-67
2021/10/01 15:07:24;;;;;;;9.07;8.67;;;;;;;;;;5033411;28;20184;-67
2021/10/01 15:09:50;;;;;;;8.60;8.20;;;;;;;;;;5033069;28;20207;-67
2021/10/01 15:12:16;;;;;;;10.43;9.73;;;;;;;;;;5031897;28;20955;-68
2021/10/01 15:14:42;;;;;;;10.07;9.57;;;;;;;;;;5032008;28;20460;-68
2021/10/01 15:17:08;;;;;;;9.87;9.37;;;;;;;;;;5033232;28;20450;-67
2021/10/01 15:19:36;;;;;;;10.97;10.27;;;20.80;14.50;;;;;;5033239;28;20410;-68
2021/10/01 15:22:01;;;;;;;10.90;10.40;;;20.80;14.50;;;;;;5033592;28;20965;-67
2021/10/01 15:24:29;;;;;;;10.83;10.33;;;20.70;14.70;;;;;;5033669;28;20468;-68
2021/10/01 15:26:54;;;;;;;11.83;11.17;;;20.70;14.00;;;;;;5033109;28;20175;-67
2021/10/01 15:29:20;;;;;;;11.97;11.00;;;20.70;14.40;;;;;;5034421;28;20434;-67
2021/10/01 15:31:45;;;;;;;11.23;10.73;;;20.60;14.20;;;;;;5052415;28;20224;-66
2021/10/01 15:34:11;;;;;;;11.67;10.87;;;20.60;14.60;;;;;;5051721;28;20232;-67
2021/10/01 15:36:36;;;;;;;12.03;11.43;;;20.60;15.20;;;;;;5049436;28;20374;-67
2021/10/01 15:39:02;;;;;;;12.13;11.43;;;;;;;;;;5038685;28;20190;-67
2021/10/01 15:41:28;;;;;;;12.33;11.73;;;20.50;13.70;;;;;;5052929;28;20343;-67
2021/10/01 15:43:54;;;;;;;11.90;11.27;;;;;;;;;;5046525;28;21019;-67
2021/10/01 15:46:20;;;;;;;12.23;11.43;;;;;;;;;;5046803;28;20668;-67
2021/10/01 15:48:46;;;;;;;12.40;11.83;;;20.40;14.00;;;;;;5039175;28;20953;-67
2021/10/01 15:51:12;;;;;;;11.97;11.37;;;20.40;14.60;;;;;;5041342;28;20516;-67
2021/10/01 15:53:38;;;;;;;11.87;11.27;;;20.40;14.40;;;;;;5041636;28;20611;-67
2021/10/01 15:56:04;;;;;;;12.97;12.27;;;20.30;14.40;;;;;;5050664;28;20950;-67
2021/10/01 15:58:29;;;;;;;12.53;11.93;;;20.30;14.50;;;;;;5052293;28;20440;-67
2021/10/01 16:00:55;;;;;;;13.33;12.57;;;20.20;14.60;;;;;;5052033;28;20179;-67
2021/10/01 16:03:23;;;;;;;13.10;12.30;;;20.20;14.80;;;;;;5052262;28;20202;-67
2021/10/01 16:05:50;;;;;;;12.00;11.40;;;20.10;14.80;;;;;;5052051;28;20179;-67
2021/10/01 16:08:16;;;;;;;12.80;12.10;;;20.10;15.10;;;;;;5052397;28;20508;-67
2021/10/01 16:10:42;;;;;;;12.63;11.97;;;;;;;;;;5050712;28;20417;-67
2021/10/01 16:13:09;;;;;;;12.87;12.07;;;;;;;;;;5052287;28;20443;-67
2021/10/01 16:15:35;;;;;;;13.00;12.30;;;;;;;;;;5051889;28;20826;-67
2021/10/01 16:18:02;;;;;;;14.17;13.30;;;;;;;;;;5052400;28;20417;-67
2021/10/01 16:20:30;;;;;;;12.90;12.20;;;;;;;;;;5051946;28;20492;-67
2021/10/01 16:22:57;;;;;;;12.87;12.23;;;;;;;;;;5050655;28;20476;-67
2021/10/01 16:25:24;;;;;;;13.00;12.40;;;;;;;;;;5052044;28;21055;-67
2021/10/01 16:27:50;;;;;;;13.00;12.30;;;;;;;;;;5052249;28;20468;-67
2021/10/01 16:30:17;;;;;;;12.67;12.00;;;;;;;;;;5052085;28;20413;-67
2021/10/01 16:32:43;;;;;;;12.70;11.90;;;;;;;;;;5051826;28;20569;-67
2021/10/01 16:35:09;;;;;;;12.67;11.97;;;;;;;;;;5051930;28;20488;-67
2021/10/01 16:37:36;;;;;;;11.73;11.13;;;;;;;;;;5051825;28;20401;-67
2021/10/01 16:40:03;;;;;;;13.33;12.53;;;;;;;;;;5051722;28;20448;-67
2021/10/01 16:42:29;;;;;;;11.70;11.20;;;;;;;;;;5051565;28;20559;-67
2021/10/01 16:44:55;;;;;;;13.80;12.90;;;;;;;;;;5051670;28;20417;-67
2021/10/01 16:47:21;;;;;;;12.80;12.20;;;;;;;;;;5051675;28;20424;-67
2021/10/01 16:49:52;;;;;;;13.50;12.30;;;;;;;;;;5051487;28;20933;-67
2021/10/01 16:52:18;;;;;;;12.83;12.00;;;;;;;;;;5050076;28;20476;-67
2021/10/01 16:54:44;;;;;;;12.23;11.63;;;;;;;;;;5041471;28;20422;-67
2021/10/01 16:57:10;;;;;;;12.67;11.97;;;;;;;;;;5031629;28;20455;-67
2021/10/01 16:59:36;;;;;;;13.17;12.40;;;;;;;;;;5036036;28;20414;-67
2021/10/01 17:02:02;;;;;;;13.53;12.63;;;;;;;;;;5045992;28;20468;-67
2021/10/01 17:04:28;;;;;;;12.80;12.00;;;;;;;;;;5053616;28;20437;-66
2021/10/01 17:06:54;;;;;;;11.83;11.13;;;;;;;;;;5048985;28;20413;-67
2021/10/01 17:09:23;;;;;;;11.37;10.67;;;;;;;;;;5040885;28;20506;-67
2021/10/01 17:11:49;;;;;;;9.27;8.70;;;;;;;;;;5027255;28;20418;-67
2021/10/01 17:14:15;;;;;;;9.23;8.73;;;;;;;;;;5035252;28;20427;-67
2021/10/01 17:16:41;;;;;;;10.67;9.97;;;;;;;;;;5046261;28;20412;-66
2021/10/01 17:19:07;;;;;;;8.23;7.57;;;;;;;;;;5046649;28;20412;-67
2021/10/01 17:21:33;;;;;;;9.93;9.00;;;;;;;;;;5044965;28;20813;-67
2021/10/01 17:23:59;;;;;;;8.77;7.73;;;;;;;;;;5045565;28;20476;-67
2021/10/01 17:26:25;;;;;;;7.93;7.33;;;;;;;;;;5038716;28;20453;-66
2021/10/01 17:28:51;;;;;;;7.57;7.07;;;17.40;24.70;;;;;;5029273;28;20424;-67
2021/10/01 17:31:16;;;;;;;7.77;7.00;;;17.40;25.20;;;;;;5044863;28;20421;-68
2021/10/01 17:33:42;;;;;;;8.97;8.27;;;17.30;25.50;;;;;;5050846;22;20231;-68
2021/10/01 17:36:08;;;;;;;8.83;8.23;;;17.20;25.80;;;;;;5020243;28;20211;-69
2021/10/01 17:38:33;;;;;;;8.03;7.40;;;17.10;26.10;;;;;;5018895;28;20184;-67
2021/10/01 17:40:59;;;;;;;8.30;6.90;;;17.00;26.20;;;;;;5018180;28;20724;-68
2021/10/01 17:43:24;;;;;;;7.30;6.70;;;16.90;26.30;;;;;;5018328;28;20210;-65
2021/10/01 17:45:50;;;;;;;8.60;7.90;;;16.80;26.60;;;;;;5018241;28;20191;-65
2021/10/01 17:48:16;;;;;;;8.47;6.93;;;16.70;26.80;;;;;;5019068;28;20382;-65
2021/10/01 17:50:41;;;;;;;7.70;7.00;;;16.70;27.00;;;;;;5020077;28;20184;-67
2021/10/01 17:53:07;;;;;;;7.17;6.57;;;16.60;27.10;;;;;;5021963;28;20196;-68
2021/10/01 17:55:34;;;;;;;8.13;6.83;;;16.50;27.10;;;;;;5021053;28;20248;-69
2021/10/01 17:58:00;;;;;;;7.20;6.60;;;16.50;27.10;;;;;;5019420;28;20492;-68
2021/10/01 18:00:25;;;;;;;7.23;6.53;;;16.30;26.90;;;;;;5019161;28;20525;-69
2021/10/01 18:02:51;;;;;;;7.30;6.60;;;16.30;26.90;;;;;;5018310;28;20208;-69
2021/10/01 18:05:17;;;;;;;6.70;5.80;;;16.20;26.80;;;;;;5021316;28;20218;-68
2021/10/01 18:07:42;;;;;;;8.40;7.60;;;16.10;27.00;;;;;;5017975;28;20203;-70
2021/10/01 18:10:08;;;;;;;6.67;6.13;;;16.10;27.10;;;;;;5020624;28;20307;-69
2021/10/01 18:12:34;;;;;;;8.30;6.20;;;16.00;27.10;;;;;;5021110;28;20591;-70
2021/10/01 18:15:00;;;;;;;7.60;7.00;;;16.00;27.40;;;;;;5020883;28;20423;-65
2021/10/01 18:17:25;;;;;;;7.63;6.93;;;16.00;27.40;;;;;;5021431;28;20330;-68
2021/10/01 18:19:51;;;;;;;7.43;6.27;;;15.90;27.50;;;;;;5023927;28;20267;-69
2021/10/01 18:22:20;;;;;;;13.87;7.47;;;15.80;27.80;;;;;;5022358;28;20192;-68
2021/10/01 18:24:45;;;;;;;6.60;6.07;;;15.80;27.70;;;;;;5022928;28;20168;-68
2021/10/01 18:27:11;;;;;;;9.33;8.43;;;15.80;28.20;;;;;;5024661;28;20425;-68
2021/10/01 18:29:36;;;;;;;6.50;6.00;;;15.80;27.70;;;;;;5022441;28;20188;-65
2021/10/01 18:32:02;;;;;;;11.10;6.33;;;15.70;27.80;;;;;;5026512;28;20206;-67
2021/10/01 18:34:28;;;;;;;6.63;6.10;;;15.70;27.90;;;;;;5025552;28;20243;-68
2021/10/01 18:36:53;;;;;;;6.40;5.80;;;15.60;28.00;;;;;;5024761;28;20942;-67
2021/10/01 18:39:19;;;;;;;6.73;6.03;;;15.60;27.90;;;;;;5025894;28;20657;-68
2021/10/01 18:41:44;;;;;;;8.20;7.50;;;15.60;27.80;;;;;;5029142;28;20229;-66
2021/10/01 18:44:10;;;;;;;5.77;5.37;;;15.60;27.90;;;;;;5027104;28;20603;-68
2021/10/01 18:46:36;;;;;;;7.43;6.70;;;15.50;27.90;;;;;;5023173;28;20327;-68
2021/10/01 18:49:01;;;;;;;7.87;6.53;;;15.50;28.00;;;;;;5022860;28;20488;-68
2021/10/01 18:51:27;;;;;;;6.07;5.57;;;15.50;28.00;;;;;;5008578;28;20185;-68
2021/10/01 18:53:53;;;;;;;9.70;6.73;;;15.50;28.30;;;;;;5004148;28;20232;-66
2021/10/01 18:56:18;;;;;;;6.60;5.97;;;15.40;28.40;;;;;;5012029;28;20567;-66
2021/10/01 18:58:44;;;;;;;10.33;5.90;;;15.30;28.50;;;;;;5006859;28;20216;-66
2021/10/01 19:01:10;;;;;;;7.67;6.87;;;15.30;28.70;;;;;;5040040;28;20205;-69
2021/10/01 19:03:36;;;;;;;9.33;6.27;;;15.30;28.80;;;;;;5024902;28;20669;-68
2021/10/01 19:06:03;;;;;;;6.67;5.93;;;15.20;29.00;;;;;;5026991;28;20195;-68
2021/10/01 19:08:32;;;;;;;5.77;5.27;;;15.10;29.30;;;;;;5016380;28;20435;-66
2021/10/01 19:11:00;;;;;;;8.00;6.80;;;15.00;29.60;;;;;;5021221;28;20430;-66
2021/10/01 19:13:27;;;;;;;7.37;6.77;;;15.00;30.00;;;;;;5024191;28;20438;-68
2021/10/01 19:15:55;;;;;;;5.50;5.00;;;14.90;30.00;;;;;;5014550;28;20443;-65
2021/10/01 19:18:21;;;;;;;6.73;5.50;;;14.90;30.00;;;;;;5023786;28;20433;-67
2021/10/01 19:20:47;;;;;;;8.10;6.07;;;15.00;30.10;;;;;;5026500;28;20667;-66
2021/10/01 19:23:33;;;;;;;5.83;4.70;;;15.00;30.10;;;;;;5025882;28;20196;-67
2021/10/01 19:31:07;;;;;;;5.60;4.93;;;15.30;30.40;;;;;;5029742;28;20179;-67
2021/10/01 19:33:33;;;;;;;5.03;4.33;;;15.30;30.40;;;;;;5028214;28;20470;-66
2021/10/01 19:35:59;;;;;;;6.77;4.87;;;15.30;30.40;;;;;;5029873;28;20483;-66
2021/10/01 19:38:26;;;;;;;5.27;4.07;;;15.40;30.40;;;;;;5027147;28;20422;-66
2021/10/01 19:40:53;;;;;;;4.73;4.33;;;15.40;30.20;;;;;;5028603;28;20474;-66
2021/10/01 19:43:18;;;;;;;4.27;3.80;;;15.40;30.00;;;;;;5031816;28;20454;-67
2021/10/01 19:45:44;;;;;;;5.83;4.40;;;15.40;30.50;;;;;;5027027;28;20437;-67
2021/10/01 19:48:10;;;;;;;6.10;4.90;;;15.40;30.40;;;;;;5027093;28;20250;-66
2021/10/01 19:50:35;;;;;;;6.60;4.80;;;15.30;30.40;;;;;;5024758;28;20203;-66
2021/10/01 19:53:01;;;;;;;5.40;4.90;;;15.30;30.40;;;;;;5023216;28;20200;-64
2021/10/01 19:55:26;;;;;;;13.60;4.80;;;15.30;30.40;;;;;;5022324;28;20251;-67
2021/10/01 19:57:58;;;;;;;6.33;5.47;;;15.30;30.40;;;;;;5023220;28;20183;-66
2021/10/01 20:00:30;;;;;;;6.07;5.50;;;15.40;30.40;;;;;;5020985;28;20246;-66
2021/10/01 20:02:56;;;;;;;4.50;4.10;;;15.40;30.40;;;;;;5020893;28;20890;-64
2021/10/01 20:05:22;;;;;;;5.80;5.03;;;15.40;30.50;;;;;;5021935;28;20458;-66
2021/10/01 20:07:52;;;;;;;5.17;4.67;;;15.40;30.40;;;;;;5021746;28;20263;-67
2021/10/01 20:10:19;;;;;;;4.37;3.97;;;15.40;30.40;;;;;;5022220;28;20489;-66
2021/10/01 20:12:45;;;;;;;6.60;6.00;;;15.40;30.50;;;;;;5007538;28;20431;-67
2021/10/01 20:15:13;;;;;;;6.13;5.50;;;15.40;30.50;;;;;;5007334;28;20423;-68
2021/10/01 20:17:43;;;;;;;5.87;4.77;;;15.40;30.40;;;;;;5006084;28;20522;-66
2021/10/01 20:25:53;;;;;;;9.03;5.97;;;15.20;30.70;;;;;;5008733;28;20422;-68
2021/10/01 20:47:22;;;;;;;4.93;4.53;;;15.00;31.40;;;;;;4995213;28;20932;-66
2021/10/01 20:49:49;;;;;;;5.40;4.90;;;14.90;31.80;;;;;;4992230;28;20415;-66
2021/10/01 20:52:15;;;;;;;8.27;5.90;;;14.90;31.80;;;;;;4991074;28;20503;-66
2021/10/01 20:54:43;;;;;;;6.30;5.33;;;14.90;31.70;;;;;;4992422;28;20888;-66
2021/10/01 20:59:57;;;;;;;6.23;5.67;;;14.90;32.30;;;;;;4992303;28;20412;-66
2021/10/01 21:45:49;;;;;;;4.60;3.97;;;14.60;32.80;;;;;;4972157;28;20422;-65
2021/10/01 21:48:16;;;;;;;7.57;4.87;;;14.60;32.80;;;;;;4991523;28;20415;-65
2021/10/01 21:50:42;;;;;;;5.87;5.27;;;14.60;33.10;;;;;;4991334;28;20412;-65
2021/10/01 21:53:07;;;;;;;4.70;3.67;;;14.60;33.10;;;;;;4991456;28;20427;-66
2021/10/01 21:55:36;;;;;;;4.40;4.00;;;14.60;32.90;;;;;;4991413;28;20420;-65
2021/10/01 21:58:04;;;;;;;4.50;4.10;;;14.60;32.70;;;;;;4990224;28;20424;-65
2021/10/01 22:07:13;;;;;;;4.37;3.70;;;14.60;33.00;;;;;;4991867;28;20473;-66
2021/10/01 22:11:44;;;;;;;9.10;4.27;;;14.60;32.40;;;;;;4991744;28;20415;-66
2021/10/01 22:22:12;;;;;;;5.57;5.07;;;14.80;31.40;;;;;;4995353;28;20438;-66
2021/10/01 22:24:38;;;;;;;7.87;5.10;;;14.90;31.10;;;;;;4995083;28;20424;-66
2021/10/01 22:27:05;;;;;;;4.33;3.87;;;14.90;31.10;;;;;;4993869;28;20412;-66
2021/10/01 22:29:32;;;;;;;7.50;4.40;;;14.90;31.00;;;;;;4994934;28;20889;-66
2021/10/01 22:32:01;;;;;;;4.53;4.13;;;14.90;30.60;;;;;;4995407;28;20415;-66
2021/10/01 22:34:27;;;;;;;6.03;4.47;;;15.00;30.50;;;;;;4994746;28;20869;-66
2021/10/01 22:36:54;;;;;;;9.00;7.20;;;15.00;30.10;;;;;;4995334;28;20420;-66
2021/10/01 22:39:21;;;;;;;8.23;7.47;;;15.00;30.50;;;;;;4994591;28;20926;-66
2021/10/01 22:41:51;;;;;;;14.40;8.63;;;14.90;30.60;;;;;;4994928;28;20498;-67
2021/10/01 22:44:22;;;;;;;14.87;8.60;;;14.90;30.90;;;;;;4994851;28;20533;-66
2021/10/01 22:46:49;;;;;;;10.23;9.07;;;14.90;30.80;;;;;;4994691;28;20412;-66
2021/10/01 22:49:15;;;;;;;11.80;9.23;;;14.70;31.40;;;;;;4993043;28;20424;-66
2021/10/01 22:51:44;;;;;;;8.47;7.67;;;14.60;32.00;;;;;;4994551;28;20855;-66
2021/10/01 22:54:10;;;;;;;9.10;8.40;;;14.50;32.80;;;;;;4994499;28;20444;-66
2021/10/01 22:56:36;;;;;;;9.73;8.90;;;14.50;33.30;;;;;;4994571;28;20801;-66
2021/10/01 22:59:02;;;;;;;9.30;8.60;;;14.50;33.30;;;;;;4993099;28;20185;-66
2021/10/01 23:01:30;;;;;;;13.60;9.63;;;14.50;33.00;;;;;;4994408;28;20419;-66
2021/10/01 23:04:01;;;;;;;9.90;8.37;;;14.60;33.00;;;;;;4994533;28;20463;-66
2021/10/01 23:06:27;;;;;;;11.17;9.47;;;14.60;32.60;;;;;;4992998;28;20445;-66
2021/10/01 23:08:55;;;;;;;7.00;6.17;;;14.70;32.20;;;;;;4994191;28;20415;-66
2021/10/01 23:11:27;;;;;;;11.70;8.43;;;14.60;32.50;;;;;;4994338;28;20542;-66
2021/10/01 23:17:16;;;;;;;8.70;7.80;;;14.50;33.70;;;;;;4978419;28;20458;-66
2021/10/01 23:52:35;;;;;;;6.97;6.27;;;14.10;36.00;;;;;;5058689;28;20443;-68
